createdAt,value
2023-03-06T00:00:47.419Z,17.02
2023-03-06T00:03:14.454Z,17.27
2023-03-06T00:05:42.164Z,16.45
2023-03-06T00:08:09.188Z,16.38
2023-03-06T00:10:36.227Z,18.77
2023-03-06T00:13:04.773Z,17.52
2023-03-06T00:15:31.811Z,17.17
2023-03-06T00:17:58.906Z,17.90
2023-03-06T00:20:26.630Z,17.17
2023-03-06T00:22:53.684Z,18.52
2023-03-06T00:25:21.833Z,19.38
2023-03-06T00:27:49.365Z,18.15
2023-03-06T00:30:17.844Z,18.33
2023-03-06T00:32:45.192Z,17.52
2023-03-06T00:35:12.916Z,18.92
2023-03-06T00:37:40.401Z,16.80
2023-03-06T00:40:08.084Z,17.42
2023-03-06T00:42:35.064Z,19.27
2023-03-06T00:45:02.095Z,17.77
2023-03-06T00:47:29.145Z,17.75
2023-03-06T00:49:56.122Z,17.73
2023-03-06T00:52:23.162Z,17.88
2023-03-06T00:54:50.168Z,18.05
2023-03-06T00:57:17.199Z,17.67
2023-03-06T00:59:44.307Z,19.95
2023-03-06T01:02:11.439Z,18.83
2023-03-06T01:04:38.495Z,17.75
2023-03-06T01:07:05.562Z,17.85
2023-03-06T01:09:32.543Z,16.40
2023-03-06T01:11:59.621Z,17.17
2023-03-06T01:14:26.906Z,17.05
2023-03-06T01:16:54.012Z,18.45
2023-03-06T01:19:21.060Z,17.65
2023-03-06T01:21:48.163Z,17.33
2023-03-06T01:24:15.196Z,18.60
2023-03-06T01:26:42.194Z,18.50
2023-03-06T01:29:09.288Z,17.77
2023-03-06T01:31:36.404Z,17.58
2023-03-06T01:34:03.726Z,17.17
2023-03-06T01:36:30.751Z,17.10
2023-03-06T01:38:57.831Z,17.23
2023-03-06T01:41:24.866Z,16.02
2023-03-06T01:43:51.978Z,15.55
2023-03-06T01:46:42.425Z,16.35
2023-03-06T01:49:41.680Z,15.68
2023-03-06T01:52:13.986Z,16.77
2023-03-06T01:54:43.982Z,17.02
2023-03-06T01:57:15.297Z,16.02
2023-03-06T01:59:43.161Z,15.30
2023-03-06T02:02:11.605Z,16.75
2023-03-06T02:04:39.750Z,16.27
2023-03-06T02:07:08.065Z,15.75
2023-03-06T02:09:35.883Z,15.85
2023-03-06T02:12:03.553Z,16.60
2023-03-06T02:14:30.832Z,16.75
2023-03-06T02:16:58.088Z,16.65
2023-03-06T02:19:28.138Z,18.55
2023-03-06T02:21:55.817Z,16.85
2023-03-06T02:24:36.141Z,16.45
2023-03-06T02:27:05.074Z,16.33
2023-03-06T02:29:32.226Z,16.15
2023-03-06T02:31:59.439Z,16.15
2023-03-06T02:34:26.478Z,15.25
2023-03-06T02:37:00.798Z,15.50
2023-03-06T02:39:30.349Z,16.65
2023-03-06T02:41:57.437Z,17.23
2023-03-06T02:44:25.030Z,16.63
2023-03-06T02:46:52.096Z,15.75
2023-03-06T02:49:19.137Z,15.98
2023-03-06T02:51:46.244Z,17.35
2023-03-06T02:54:13.272Z,16.77
2023-03-06T02:56:40.289Z,16.17
2023-03-06T02:59:07.345Z,17.00
2023-03-06T03:01:34.432Z,15.98
2023-03-06T03:04:01.482Z,14.88
2023-03-06T03:06:28.563Z,16.52
2023-03-06T03:08:55.677Z,17.02
2023-03-06T03:11:22.733Z,16.92
2023-03-06T03:13:49.842Z,15.63
2023-03-06T03:16:16.927Z,15.77
2023-03-06T03:18:44.944Z,16.15
2023-03-06T03:21:13.789Z,15.45
2023-03-06T03:23:41.378Z,16.00
2023-03-06T03:26:15.895Z,15.55
2023-03-06T03:28:42.921Z,16.05
2023-03-06T03:31:10.581Z,16.33
2023-03-06T03:33:37.912Z,15.10
2023-03-06T03:36:06.037Z,15.10
2023-03-06T03:38:33.049Z,16.30
2023-03-06T03:41:01.485Z,15.85
2023-03-06T03:43:28.491Z,14.93
2023-03-06T03:45:55.510Z,13.90
2023-03-06T03:48:22.652Z,15.02
2023-03-06T03:50:49.974Z,15.25
2023-03-06T03:53:16.984Z,15.48
2023-03-06T03:55:44.085Z,14.57
2023-03-06T03:58:11.192Z,15.43
2023-03-06T04:00:38.256Z,15.82
2023-03-06T04:03:05.302Z,16.45
2023-03-06T04:05:33.822Z,14.85
2023-03-06T04:08:03.020Z,13.95
2023-03-06T04:10:30.123Z,14.00
2023-03-06T04:12:57.217Z,14.63
2023-03-06T04:15:24.262Z,14.88
2023-03-06T04:17:51.292Z,15.40
2023-03-06T04:20:18.649Z,15.15
2023-03-06T04:22:45.656Z,14.57
2023-03-06T04:25:12.683Z,15.27
2023-03-06T04:27:39.783Z,14.50
2023-03-06T04:30:07.489Z,15.90
2023-03-06T04:32:34.525Z,15.30
2023-03-06T04:35:01.573Z,14.75
2023-03-06T04:37:28.690Z,14.60
2023-03-06T04:39:55.718Z,14.18
2023-03-06T04:42:22.786Z,14.30
2023-03-06T04:44:49.821Z,14.90
2023-03-06T04:47:19.052Z,15.00
2023-03-06T04:49:46.276Z,13.95
2023-03-06T04:52:13.339Z,14.02
2023-03-06T04:54:40.391Z,14.60
2023-03-06T04:57:07.392Z,14.85
2023-03-06T04:59:34.404Z,15.02
2023-03-06T05:02:01.446Z,14.73
2023-03-06T05:04:28.477Z,15.18
2023-03-06T05:06:55.587Z,14.32
2023-03-06T05:09:22.642Z,15.95
2023-03-06T05:11:49.674Z,14.45
2023-03-06T05:14:16.726Z,15.63
2023-03-06T05:16:43.882Z,14.02
2023-03-06T05:19:11.071Z,14.77
2023-03-06T05:21:38.136Z,14.88
2023-03-06T05:24:05.261Z,15.68
2023-03-06T05:26:32.389Z,15.63
2023-03-06T05:28:59.364Z,16.38
2023-03-06T05:31:27.397Z,15.98
2023-03-06T05:33:54.510Z,15.65
2023-03-06T05:36:21.516Z,15.70
2023-03-06T05:38:48.526Z,15.50
2023-03-06T05:41:15.671Z,15.57
2023-03-06T05:43:42.866Z,15.77
2023-03-06T05:46:09.994Z,16.00
2023-03-06T05:48:37.525Z,15.73
2023-03-06T05:51:05.591Z,15.57
2023-03-06T05:53:32.814Z,15.20
2023-03-06T05:56:00.977Z,14.60
2023-03-06T05:58:28.472Z,16.05
2023-03-06T06:00:55.572Z,14.77
2023-03-06T06:03:22.580Z,14.52
2023-03-06T06:05:49.712Z,15.02
2023-03-06T06:08:16.760Z,15.10
2023-03-06T06:10:43.817Z,14.88
2023-03-06T06:13:10.838Z,15.18
2023-03-06T06:15:38.949Z,15.00
2023-03-06T06:18:06.016Z,15.30
2023-03-06T06:20:33.028Z,16.40
2023-03-06T06:23:00.094Z,15.70
2023-03-06T06:25:27.133Z,16.10
2023-03-06T06:27:56.309Z,14.80
2023-03-06T06:30:23.552Z,14.68
2023-03-06T06:32:51.022Z,14.50
2023-03-06T06:35:18.196Z,15.90
2023-03-06T06:37:45.238Z,16.08
2023-03-06T06:40:12.444Z,15.10
2023-03-06T06:42:40.356Z,15.80
2023-03-06T06:45:08.227Z,16.83
2023-03-06T06:47:38.152Z,14.85
2023-03-06T06:50:05.507Z,16.40
2023-03-06T06:52:32.512Z,16.00
2023-03-06T06:54:59.600Z,17.05
2023-03-06T06:57:26.640Z,16.10
2023-03-06T06:59:54.313Z,16.02
2023-03-06T07:02:21.504Z,15.85
2023-03-06T07:05:02.415Z,16.13
2023-03-06T07:07:30.622Z,17.27
2023-03-06T07:09:57.689Z,16.02
2023-03-06T07:12:24.793Z,16.92
2023-03-06T07:14:51.846Z,16.17
2023-03-06T07:17:18.947Z,16.35
2023-03-06T07:19:46.037Z,15.88
2023-03-06T07:22:13.407Z,16.48
2023-03-06T07:24:40.530Z,16.67
2023-03-06T07:27:07.621Z,16.65
2023-03-06T07:29:34.704Z,17.58
2023-03-06T07:32:02.116Z,16.15
2023-03-06T07:34:29.440Z,16.15
2023-03-06T07:36:56.512Z,17.95
2023-03-06T07:39:23.657Z,17.42
2023-03-06T07:41:52.110Z,16.45
2023-03-06T07:44:20.139Z,16.98
2023-03-06T07:46:47.276Z,17.17
2023-03-06T07:49:14.410Z,17.30
2023-03-06T07:51:41.451Z,17.73
2023-03-06T07:54:08.457Z,16.58
2023-03-06T07:56:35.586Z,17.77
2023-03-06T07:59:03.036Z,17.02
2023-03-06T08:01:30.210Z,16.48
2023-03-06T08:03:57.585Z,17.65
2023-03-06T08:06:25.814Z,19.58
2023-03-06T08:08:53.934Z,18.63
2023-03-06T08:11:21.952Z,18.30
2023-03-06T08:13:49.172Z,19.90
2023-03-06T08:16:17.472Z,19.40
2023-03-06T08:18:46.332Z,18.98
2023-03-06T08:21:15.240Z,18.73
2023-03-06T08:23:42.570Z,18.30
2023-03-06T08:26:12.025Z,19.02
2023-03-06T08:28:39.107Z,17.95
2023-03-06T08:31:10.628Z,18.55
2023-03-06T08:33:38.191Z,19.17
2023-03-06T08:36:05.571Z,18.20
2023-03-06T08:38:32.716Z,18.55
2023-03-06T08:40:59.742Z,18.30
2023-03-06T08:43:26.829Z,18.38
2023-03-06T08:45:54.508Z,19.00
2023-03-06T08:48:21.718Z,19.23
2023-03-06T08:50:48.878Z,18.45
2023-03-06T08:53:15.960Z,18.02
2023-03-06T08:55:43.021Z,18.13
2023-03-06T08:58:10.146Z,19.20
2023-03-06T09:00:37.708Z,19.73
2023-03-06T09:03:05.068Z,20.48
2023-03-06T09:05:32.359Z,19.13
2023-03-06T09:07:59.412Z,18.65
2023-03-06T09:10:26.873Z,18.98
2023-03-06T09:12:55.222Z,17.98
2023-03-06T09:15:23.234Z,19.08
2023-03-06T09:17:50.807Z,18.17
2023-03-06T09:20:18.281Z,17.08
2023-03-06T09:22:48.210Z,19.33
2023-03-06T09:25:21.826Z,17.75
2023-03-06T09:27:55.634Z,17.48
2023-03-06T09:30:25.446Z,19.17
2023-03-06T09:32:52.499Z,18.60
2023-03-06T09:35:19.658Z,18.92
2023-03-06T09:37:46.730Z,19.40
2023-03-06T09:40:29.935Z,17.98
2023-03-06T09:42:56.974Z,12.73
2023-03-06T09:45:24.202Z,20.08
2023-03-06T09:47:59.562Z,17.70
2023-03-06T09:50:45.153Z,16.67
2023-03-06T09:53:30.929Z,18.02
2023-03-06T09:56:01.664Z,18.15
2023-03-06T09:58:30.575Z,15.65
2023-03-06T10:01:05.610Z,16.35
2023-03-06T10:03:42.850Z,16.98
2023-03-06T10:06:12.633Z,17.73
2023-03-06T10:08:48.627Z,17.17
2023-03-06T10:11:19.135Z,16.50
2023-03-06T10:13:47.676Z,15.45
2023-03-06T10:16:14.707Z,14.55
2023-03-06T10:18:41.944Z,16.77
2023-03-06T10:21:21.310Z,17.95
2023-03-06T10:23:55.712Z,16.92
2023-03-06T10:26:27.907Z,17.42
2023-03-06T10:29:02.361Z,15.48
2023-03-06T10:31:29.896Z,16.15
2023-03-06T10:33:58.710Z,15.90
2023-03-06T10:36:27.289Z,14.63
2023-03-06T10:38:55.391Z,16.38
2023-03-06T10:41:27.401Z,16.33
2023-03-06T10:44:00.660Z,15.98
2023-03-06T10:46:29.409Z,17.42
2023-03-06T10:49:01.059Z,17.67
2023-03-06T10:51:29.233Z,16.48
2023-03-06T10:54:00.591Z,15.88
2023-03-06T10:56:29.621Z,15.65
2023-03-06T10:59:28.275Z,14.95
2023-03-06T11:01:57.230Z,14.60
2023-03-06T11:04:34.606Z,15.25
2023-03-06T11:07:09.303Z,14.48
2023-03-06T11:09:36.930Z,14.02
2023-03-06T11:12:24.278Z,16.70
2023-03-06T11:15:08.241Z,14.88
2023-03-06T11:17:36.814Z,15.02
2023-03-06T11:20:16.296Z,14.55
2023-03-06T11:22:49.144Z,15.25
2023-03-06T11:25:18.496Z,12.70
2023-03-06T11:27:46.380Z,15.15
2023-03-06T11:30:19.055Z,15.20
2023-03-06T11:32:54.383Z,17.45
2023-03-06T11:35:26.320Z,15.32
2023-03-06T11:37:54.845Z,17.02
2023-03-06T11:40:25.136Z,18.17
2023-03-06T11:43:07.403Z,15.25
2023-03-06T11:45:37.118Z,16.60
2023-03-06T11:48:19.203Z,15.23
2023-03-06T11:50:51.400Z,16.17
2023-03-06T11:53:22.724Z,15.82
2023-03-06T11:55:55.659Z,14.95
2023-03-06T11:58:41.324Z,15.70
2023-03-06T12:01:21.216Z,16.25
2023-03-06T12:04:07.430Z,14.50
2023-03-06T12:06:43.525Z,16.77
2023-03-06T12:09:10.503Z,18.02
2023-03-06T12:11:46.034Z,15.80
2023-03-06T12:14:18.942Z,16.85
2023-03-06T12:16:51.714Z,16.70
2023-03-06T12:19:37.306Z,16.38
2023-03-06T12:22:08.074Z,15.90
2023-03-06T12:24:53.885Z,15.43
2023-03-06T12:27:30.954Z,16.20
2023-03-06T12:30:10.295Z,16.33
2023-03-06T12:32:43.080Z,16.52
2023-03-06T12:35:28.829Z,17.90
2023-03-06T12:38:04.391Z,16.25
2023-03-06T12:40:44.450Z,16.45
2023-03-06T12:43:29.693Z,16.17
2023-03-06T12:45:59.108Z,17.50
2023-03-06T12:48:33.308Z,15.98
2023-03-06T12:51:00.405Z,17.05
2023-03-06T12:53:28.868Z,16.98
2023-03-06T12:55:56.613Z,16.15
2023-03-06T12:58:29.785Z,17.60
2023-03-06T13:01:03.708Z,14.23
2023-03-06T13:03:54.989Z,16.58
2023-03-06T13:06:50.207Z,16.85
2023-03-06T13:09:35.901Z,16.17
2023-03-06T13:12:14.483Z,18.85
2023-03-06T13:14:48.790Z,15.35
2023-03-06T13:17:20.988Z,16.20
2023-03-06T13:19:48.343Z,16.83
2023-03-06T13:22:26.772Z,18.65
2023-03-06T13:25:12.794Z,16.38
2023-03-06T13:27:55.139Z,15.77
2023-03-06T13:30:24.345Z,17.10
2023-03-06T13:32:54.931Z,14.88
2023-03-06T13:35:32.105Z,15.90
2023-03-06T13:38:00.172Z,15.48
2023-03-06T13:40:28.470Z,16.60
2023-03-06T13:43:05.525Z,15.40
2023-03-06T13:45:43.276Z,14.73
2023-03-06T13:48:45.595Z,15.93
2023-03-06T13:51:22.899Z,16.08
2023-03-06T13:54:16.335Z,16.45
2023-03-06T13:57:01.987Z,16.45
2023-03-06T13:59:45.568Z,15.25
2023-03-06T14:02:26.510Z,14.93
2023-03-06T14:04:55.367Z,16.05
2023-03-06T14:07:23.166Z,16.88
2023-03-06T14:09:55.869Z,16.50
2023-03-06T14:12:29.355Z,15.98
2023-03-06T14:15:00.678Z,16.38
2023-03-06T14:17:30.085Z,16.65
2023-03-06T14:19:59.116Z,15.13
2023-03-06T14:22:26.238Z,15.73
2023-03-06T14:25:05.434Z,15.32
2023-03-06T14:28:12.379Z,14.80
2023-03-06T14:30:48.882Z,14.88
2023-03-06T14:33:24.835Z,14.98
2023-03-06T14:35:54.606Z,16.02
2023-03-06T14:38:22.104Z,17.23
2023-03-06T14:40:49.266Z,15.73
2023-03-06T14:43:20.617Z,16.08
2023-03-06T14:45:52.411Z,16.90
2023-03-06T14:48:19.463Z,15.93
2023-03-06T14:50:50.827Z,16.45
2023-03-06T14:53:19.810Z,15.65
2023-03-06T14:55:51.551Z,14.85
2023-03-06T14:58:20.616Z,15.10
2023-03-06T15:00:50.270Z,16.52
2023-03-06T15:03:18.607Z,15.63
2023-03-06T15:05:46.674Z,14.18
2023-03-06T15:08:18.434Z,15.25
2023-03-06T15:10:56.187Z,14.75
2023-03-06T15:13:24.622Z,13.65
2023-03-06T15:15:57.718Z,14.65
2023-03-06T15:18:35.276Z,12.25
2023-03-06T15:21:19.079Z,15.23
2023-03-06T15:23:47.077Z,15.65
2023-03-06T15:26:20.320Z,15.18
2023-03-06T15:28:59.865Z,16.00
2023-03-06T15:31:34.315Z,13.95
2023-03-06T15:34:04.461Z,14.65
2023-03-06T15:36:32.644Z,13.20
2023-03-06T15:39:00.812Z,13.60
2023-03-06T15:41:35.557Z,13.63
2023-03-06T15:44:03.810Z,15.57
2023-03-06T15:46:30.933Z,16.02
2023-03-06T15:49:03.110Z,13.70
2023-03-06T15:51:31.076Z,14.45
2023-03-06T15:54:09.678Z,14.75
2023-03-06T15:56:40.061Z,12.40
2023-03-06T15:59:10.729Z,14.02
2023-03-06T16:01:37.886Z,13.07
2023-03-06T16:04:05.008Z,12.88
2023-03-06T16:06:32.047Z,13.93
2023-03-06T16:08:59.332Z,12.75
2023-03-06T16:11:43.270Z,13.05
2023-03-06T16:14:18.884Z,13.27
2023-03-06T16:16:46.094Z,12.73
2023-03-06T16:19:25.978Z,13.07
2023-03-06T16:21:53.487Z,13.23
2023-03-06T16:24:20.524Z,13.57
2023-03-06T16:26:50.605Z,11.85
2023-03-06T16:29:18.808Z,13.55
2023-03-06T16:31:46.249Z,13.90
2023-03-06T16:34:13.505Z,13.57
2023-03-06T16:36:40.507Z,13.90
2023-03-06T16:39:07.976Z,12.70
2023-03-06T16:41:35.030Z,13.57
2023-03-06T16:44:02.061Z,12.90
2023-03-06T16:46:29.533Z,12.93
2023-03-06T16:48:56.737Z,12.05
2023-03-06T16:51:23.842Z,13.20
2023-03-06T16:53:51.042Z,11.90
2023-03-06T16:56:20.303Z,12.48
2023-03-06T16:58:47.984Z,12.23
2023-03-06T17:01:19.068Z,12.43
2023-03-06T17:03:46.528Z,12.60
2023-03-06T17:06:23.281Z,12.60
2023-03-06T17:08:50.885Z,10.55
2023-03-06T17:11:20.150Z,12.30
2023-03-06T17:13:47.673Z,12.10
2023-03-06T17:16:16.417Z,11.68
2023-03-06T17:18:44.758Z,12.77
2023-03-06T17:21:12.567Z,11.77
2023-03-06T17:23:39.585Z,12.27
2023-03-06T17:26:12.317Z,12.52
2023-03-06T17:28:40.427Z,12.30
2023-03-06T17:31:17.734Z,12.32
2023-03-06T17:33:45.102Z,12.27
2023-03-06T17:36:14.246Z,11.95
2023-03-06T17:38:41.552Z,11.30
2023-03-06T17:41:09.357Z,13.50
2023-03-06T17:43:37.110Z,12.60
2023-03-06T17:46:05.836Z,12.70
2023-03-06T17:48:33.019Z,13.82
2023-03-06T17:51:00.433Z,13.80
2023-03-06T17:53:27.498Z,13.82
2023-03-06T17:55:54.876Z,13.27
2023-03-06T17:58:22.161Z,12.38
2023-03-06T18:00:49.398Z,14.80
2023-03-06T18:03:16.414Z,13.15
2023-03-06T18:05:43.557Z,13.88
2023-03-06T18:08:10.567Z,12.50
2023-03-06T18:10:41.535Z,14.52
2023-03-06T18:13:10.427Z,13.30
2023-03-06T18:15:40.750Z,13.65
2023-03-06T18:18:08.075Z,13.20
2023-03-06T18:20:35.733Z,14.02
2023-03-06T18:23:03.624Z,14.35
2023-03-06T18:25:31.468Z,12.95
2023-03-06T18:27:58.643Z,13.85
2023-03-06T18:30:25.860Z,13.80
2023-03-06T18:32:52.895Z,13.55
2023-03-06T18:35:20.027Z,14.02
2023-03-06T18:37:47.091Z,14.38
2023-03-06T18:40:14.356Z,13.68
2023-03-06T18:42:41.375Z,13.95
2023-03-06T18:45:08.794Z,13.10
2023-03-06T18:47:35.844Z,13.15
2023-03-06T18:50:03.123Z,14.65
2023-03-06T18:52:30.233Z,15.27
2023-03-06T18:54:57.281Z,14.93
2023-03-06T18:57:24.299Z,14.95
2023-03-06T18:59:51.313Z,13.38
2023-03-06T19:02:18.445Z,13.30
2023-03-06T19:04:45.471Z,13.95
2023-03-06T19:07:13.828Z,12.63
2023-03-06T19:09:42.637Z,12.93
2023-03-06T19:12:09.904Z,13.05
2023-03-06T19:14:37.796Z,12.27
2023-03-06T19:17:04.932Z,13.65
2023-03-06T19:19:31.977Z,13.68
2023-03-06T19:21:59.173Z,13.48
2023-03-06T19:24:26.494Z,14.63
2023-03-06T19:26:53.634Z,13.60
2023-03-06T19:29:20.660Z,13.32
2023-03-06T19:31:47.688Z,12.85
2023-03-06T19:34:14.721Z,12.57
2023-03-06T19:36:41.871Z,13.15
2023-03-06T19:39:09.463Z,13.52
2023-03-06T19:41:36.573Z,12.90
2023-03-06T19:44:05.741Z,13.90
2023-03-06T19:46:34.435Z,13.80
2023-03-06T19:49:02.207Z,13.80
2023-03-06T19:51:29.755Z,14.13
2023-03-06T19:53:57.472Z,14.18
2023-03-06T19:56:30.135Z,14.75
2023-03-06T19:58:57.340Z,13.32
2023-03-06T20:01:26.540Z,14.48
2023-03-06T20:04:00.220Z,13.98
2023-03-06T20:06:33.293Z,14.45
2023-03-06T20:09:01.313Z,14.63
2023-03-06T20:11:29.951Z,14.93
2023-03-06T20:13:57.982Z,14.65
2023-03-06T20:16:25.216Z,14.30
2023-03-06T20:18:52.390Z,13.02
2023-03-06T20:21:21.395Z,14.27
2023-03-06T20:23:48.635Z,12.55
2023-03-06T20:26:15.995Z,14.85
2023-03-06T20:28:43.104Z,13.60
2023-03-06T20:31:11.706Z,13.93
2023-03-06T20:33:38.792Z,13.73
2023-03-06T20:36:11.757Z,13.93
2023-03-06T20:38:39.128Z,13.60
2023-03-06T20:41:06.152Z,13.52
2023-03-06T20:43:33.259Z,13.27
2023-03-06T20:46:01.326Z,12.82
2023-03-06T20:48:28.648Z,13.32
2023-03-06T20:51:03.117Z,13.35
2023-03-06T20:53:30.355Z,15.07
2023-03-06T20:55:57.461Z,12.45
2023-03-06T20:58:26.599Z,13.38
2023-03-06T21:00:53.678Z,14.00
2023-03-06T21:03:20.823Z,13.68
2023-03-06T21:05:47.915Z,13.52
2023-03-06T21:08:15.617Z,13.88
2023-03-06T21:10:43.016Z,13.30
2023-03-06T21:13:10.045Z,14.38
2023-03-06T21:15:38.823Z,14.32
2023-03-06T21:18:06.366Z,14.38
2023-03-06T21:20:33.783Z,13.68
2023-03-06T21:23:03.969Z,13.85
2023-03-06T21:25:31.283Z,13.27
2023-03-06T21:28:00.119Z,13.27
2023-03-06T21:30:28.370Z,13.10
2023-03-06T21:32:55.473Z,13.20
2023-03-06T21:35:22.559Z,13.85
2023-03-06T21:37:49.584Z,13.43
2023-03-06T21:40:17.754Z,13.00
2023-03-06T21:42:44.765Z,15.27
2023-03-06T21:45:12.031Z,14.13
2023-03-06T21:47:40.881Z,13.68
2023-03-06T21:50:09.009Z,13.32
2023-03-06T21:52:36.153Z,13.38
2023-03-06T21:55:03.219Z,13.98
2023-03-06T21:57:30.414Z,13.65
2023-03-06T21:59:57.490Z,14.07
2023-03-06T22:02:24.857Z,14.10
2023-03-06T22:04:52.544Z,14.38
2023-03-06T22:07:20.598Z,14.80
2023-03-06T22:09:47.887Z,14.60
2023-03-06T22:12:14.922Z,13.70
2023-03-06T22:14:44.221Z,14.55
2023-03-06T22:17:11.285Z,16.45
2023-03-06T22:19:38.306Z,14.05
2023-03-06T22:22:05.866Z,15.63
2023-03-06T22:24:32.975Z,13.38
2023-03-06T22:27:00.010Z,13.75
2023-03-06T22:29:27.220Z,13.77
2023-03-06T22:31:54.291Z,14.25
2023-03-06T22:34:21.329Z,14.57
2023-03-06T22:36:48.433Z,14.13
2023-03-06T22:39:15.615Z,14.85
2023-03-06T22:41:42.613Z,13.77
2023-03-06T22:44:15.092Z,13.13
2023-03-06T22:46:42.139Z,14.15
2023-03-06T22:49:10.115Z,15.13
2023-03-06T22:51:37.640Z,16.00
2023-03-06T22:54:05.184Z,13.45
2023-03-06T22:56:32.217Z,14.70
2023-03-06T22:58:59.501Z,15.98
2023-03-06T23:01:28.099Z,15.13
2023-03-06T23:03:56.343Z,16.67
2023-03-06T23:06:25.204Z,15.05
2023-03-06T23:08:54.077Z,13.55
2023-03-06T23:11:22.218Z,14.77
2023-03-06T23:13:49.274Z,14.85
2023-03-06T23:16:16.440Z,13.63
2023-03-06T23:18:43.513Z,14.82
2023-03-06T23:21:11.816Z,14.93
2023-03-06T23:23:39.093Z,14.07
2023-03-06T23:26:06.924Z,13.60
2023-03-06T23:28:34.861Z,13.93
2023-03-06T23:31:06.971Z,14.13
2023-03-06T23:33:34.051Z,14.90
2023-03-06T23:36:05.010Z,13.73
2023-03-06T23:38:32.481Z,14.05
2023-03-06T23:41:06.994Z,15.23
2023-03-06T23:43:34.187Z,14.18
2023-03-06T23:46:01.751Z,15.10
2023-03-06T23:48:29.416Z,15.02
2023-03-06T23:50:56.616Z,14.68
2023-03-06T23:55:59.916Z,15.23
2023-03-06T23:58:26.920Z,14.02
